createdAt,value
2024-04-04T04:15:05.620Z,1001.21
2024-04-04T04:16:05.754Z,1001.23
2024-04-04T04:17:05.890Z,1001.17
2024-04-04T04:18:05.985Z,1001.24
2024-04-04T04:19:06.348Z,1001.20
2024-04-04T04:20:06.289Z,1001.19
2024-04-04T04:21:06.391Z,1001.23
2024-04-04T04:22:06.518Z,1001.15
2024-04-04T04:23:06.634Z,1001.13
2024-04-04T04:24:06.774Z,1001.12
2024-04-04T04:25:07.048Z,1001.16
2024-04-04T04:26:07.027Z,1001.08
2024-04-04T04:27:07.160Z,1001.12
2024-04-04T04:28:07.219Z,1001.08
2024-04-04T04:29:07.335Z,1001.06
2024-04-04T04:30:07.469Z,1001.05
2024-04-04T04:31:07.571Z,1001.00
2024-04-04T04:32:08.669Z,1000.99
2024-04-04T04:33:07.826Z,1001.00
2024-04-04T04:34:07.994Z,1000.97
2024-04-04T04:35:08.226Z,1000.94
2024-04-04T04:36:08.203Z,1000.98
2024-04-04T04:37:08.257Z,1000.87
2024-04-04T04:38:08.442Z,1000.87
2024-04-04T04:39:08.558Z,1000.90
2024-04-04T04:40:08.670Z,1000.92
2024-04-04T04:41:09.712Z,1000.93
2024-04-04T04:42:08.930Z,1000.91
2024-04-04T04:43:09.015Z,1000.92
2024-04-04T04:44:09.252Z,1000.93
2024-04-04T04:45:09.347Z,1000.97
2024-04-04T04:46:09.483Z,1000.94
2024-04-04T04:47:09.612Z,1000.91
2024-04-04T04:48:09.730Z,1000.88
2024-04-04T04:49:09.799Z,1000.89
2024-04-04T04:50:10.005Z,1000.85
2024-04-04T04:51:10.067Z,1000.81
2024-04-04T04:52:10.206Z,1000.83
2024-04-04T04:53:10.358Z,1000.80
2024-04-04T04:54:10.509Z,1000.80
2024-04-04T04:55:10.606Z,1000.78
2024-04-04T04:56:10.745Z,1000.71
2024-04-04T04:57:10.893Z,1000.73
2024-04-04T04:58:11.031Z,1000.73
2024-04-04T04:59:11.157Z,1000.70
2024-04-04T05:00:11.310Z,1000.74
2024-04-04T05:01:11.427Z,1000.76
2024-04-04T05:02:11.580Z,1000.72
2024-04-04T05:03:11.706Z,1000.76
2024-04-04T05:04:11.848Z,1000.69
2024-04-04T05:05:11.980Z,1000.62
2024-04-04T05:06:12.124Z,1000.66
2024-04-04T05:07:12.282Z,1000.65
2024-04-04T05:08:12.428Z,1000.66
2024-04-04T05:09:12.559Z,1000.61
2024-04-04T05:10:12.706Z,1000.59
2024-04-04T05:11:12.850Z,1000.61
2024-04-04T05:12:12.998Z,1000.58
2024-04-04T05:13:13.159Z,1000.53
2024-04-04T05:14:13.272Z,1000.56
2024-04-04T05:15:13.415Z,1000.47
2024-04-04T05:16:13.564Z,1000.48
2024-04-04T05:17:13.689Z,1000.46
2024-04-04T05:18:13.819Z,1000.50
2024-04-04T05:19:13.967Z,1000.47
2024-04-04T05:20:14.097Z,1000.45
2024-04-04T05:21:14.209Z,1000.41
2024-04-04T05:22:14.337Z,1000.41
2024-04-04T05:23:15.431Z,1000.37
2024-04-04T05:24:14.647Z,1000.37
2024-04-04T05:25:14.729Z,1000.35
2024-04-04T05:26:14.865Z,1000.37
2024-04-04T05:27:14.997Z,1000.31
2024-04-04T05:28:15.137Z,1000.28
2024-04-04T05:29:15.492Z,1000.29
2024-04-04T05:30:15.550Z,1000.26
2024-04-04T05:31:15.566Z,1000.23
2024-04-04T05:32:16.149Z,1000.23
2024-04-04T05:33:15.804Z,1000.23
2024-04-04T05:34:15.927Z,1000.21
2024-04-04T05:35:16.131Z,1000.23
2024-04-04T05:36:16.151Z,1000.20
2024-04-04T05:37:16.297Z,1000.18
2024-04-04T05:38:16.458Z,1000.20
2024-04-04T05:39:16.727Z,1000.20
2024-04-04T05:40:16.695Z,1000.19
2024-04-04T05:41:16.877Z,1000.16
2024-04-04T05:42:16.954Z,1000.12
2024-04-04T05:43:18.074Z,1000.13
2024-04-04T05:44:17.227Z,1000.15
2024-04-04T05:45:17.334Z,1000.09
2024-04-04T05:46:17.445Z,1000.13
2024-04-04T05:47:17.576Z,1000.10
2024-04-04T05:48:17.701Z,1000.08
2024-04-04T05:49:18.816Z,1000.06
2024-04-04T05:50:18.022Z,1000.08
2024-04-04T05:51:18.373Z,1000.07
2024-04-04T05:52:18.473Z,1000.06
2024-04-04T05:53:20.023Z,1000.08
2024-04-04T05:54:19.668Z,1000.06
2024-04-04T05:56:34.682Z,1000.04
2024-04-04T06:00:22.207Z,1000.00
2024-04-04T06:01:22.510Z,999.98
2024-04-04T06:03:38.268Z,999.94
2024-04-04T06:04:46.388Z,999.91
2024-04-04T06:05:39.447Z,999.91
2024-04-04T06:06:38.548Z,999.87
2024-04-04T06:07:38.634Z,999.83
2024-04-04T06:08:39.706Z,999.87
2024-04-04T06:09:39.903Z,999.92
2024-04-04T06:10:39.159Z,999.87
2024-04-04T06:11:39.141Z,999.86
2024-04-04T06:12:39.962Z,999.86
2024-04-04T06:13:41.657Z,999.79
2024-04-04T06:14:39.739Z,999.82
2024-04-04T06:15:42.142Z,999.73
2024-04-04T06:16:40.727Z,999.72
2024-04-04T06:17:39.923Z,999.69
2024-04-04T06:18:41.005Z,999.63
2024-04-04T06:19:41.567Z,999.68
2024-04-04T06:20:41.410Z,999.64
2024-04-04T06:21:42.880Z,999.63
2024-04-04T06:22:40.691Z,999.60
2024-04-04T06:23:40.659Z,999.61
2024-04-04T06:24:40.768Z,999.54
2024-04-04T06:25:40.943Z,999.57
2024-04-04T06:26:42.032Z,999.48
2024-04-04T06:27:41.245Z,999.50
2024-04-04T06:28:42.319Z,999.49
2024-04-04T06:29:42.471Z,999.49
2024-04-04T06:30:41.643Z,999.45
2024-04-04T06:31:41.845Z,999.47
2024-04-04T06:32:42.021Z,999.44
2024-04-04T06:33:43.023Z,999.44
2024-04-04T06:34:42.184Z,999.46
2024-04-04T06:35:43.387Z,999.38
2024-04-04T06:36:43.354Z,999.37
2024-04-04T06:37:43.637Z,999.37
2024-04-04T06:38:42.779Z,999.36
2024-04-04T06:39:42.933Z,999.38
2024-04-04T06:40:42.970Z,999.35
2024-04-04T06:41:43.053Z,999.33
2024-04-04T06:42:43.197Z,999.30
2024-04-04T06:43:43.313Z,999.32
2024-04-04T06:44:43.437Z,999.32
2024-04-04T06:45:43.659Z,999.31
2024-04-04T06:46:44.697Z,999.31
2024-04-04T06:47:43.852Z,999.29
2024-04-04T06:48:43.991Z,999.25
2024-04-04T06:49:44.073Z,999.28
2024-04-04T06:50:44.250Z,999.28
2024-04-04T06:51:45.984Z,999.27
2024-04-04T06:52:44.437Z,999.23
2024-04-04T06:53:45.505Z,999.27
2024-04-04T06:54:44.672Z,999.26
2024-04-04T06:55:45.765Z,999.27
2024-04-04T06:56:45.943Z,999.24
2024-04-04T06:57:45.155Z,999.23
2024-04-04T06:58:46.116Z,999.24
2024-04-04T06:59:45.417Z,999.22
2024-04-04T07:00:45.449Z,999.25
2024-04-04T07:01:46.540Z,999.16
2024-04-04T07:02:46.719Z,999.16
2024-04-04T07:03:45.871Z,999.18
2024-04-04T07:04:45.947Z,999.13
2024-04-04T07:05:46.156Z,999.09
2024-04-04T07:06:46.353Z,999.09
2024-04-04T07:07:46.563Z,999.09
2024-04-04T07:08:47.520Z,999.02
2024-04-04T07:09:46.909Z,999.09
2024-04-04T07:10:47.906Z,999.05
2024-04-04T07:11:47.888Z,999.05
2024-04-04T07:12:47.032Z,999.01
2024-04-04T07:13:48.131Z,999.04
2024-04-04T07:14:47.288Z,999.02
2024-04-04T07:15:47.671Z,999.01
2024-04-04T07:16:48.621Z,998.94
2024-04-04T07:17:49.555Z,998.96
2024-04-04T07:18:48.769Z,998.92
2024-04-04T07:19:48.057Z,998.93
2024-04-04T07:20:48.050Z,998.93
2024-04-04T07:21:49.209Z,999.01
2024-04-04T07:22:49.307Z,998.99
2024-04-04T07:23:48.449Z,998.95
2024-04-04T07:24:49.739Z,998.98
2024-04-04T07:25:49.792Z,998.94
2024-04-04T07:26:49.242Z,998.93
2024-04-04T07:27:49.156Z,998.92
2024-04-04T07:28:49.163Z,998.88
2024-04-04T07:29:50.248Z,998.89
2024-04-04T07:30:49.516Z,998.88
2024-04-04T07:31:50.883Z,998.86
2024-04-04T07:32:50.369Z,998.86
2024-04-04T07:33:49.857Z,998.85
2024-04-04T07:34:50.156Z,998.84
2024-04-04T07:35:50.197Z,998.84
2024-04-04T07:36:50.128Z,998.81
2024-04-04T07:37:50.291Z,998.87
2024-04-04T07:38:50.366Z,998.87
2024-04-04T07:39:50.753Z,998.77
2024-04-04T07:40:51.013Z,998.77
2024-04-04T07:43:07.494Z,998.71
2024-04-04T07:44:07.482Z,998.76
2024-04-04T07:45:18.357Z,998.72
2024-04-04T07:46:08.035Z,998.78
2024-04-04T07:47:07.932Z,998.80
2024-04-04T07:48:09.668Z,998.71
2024-04-04T07:49:08.230Z,998.77
2024-04-04T07:50:08.279Z,998.72
2024-04-04T07:51:08.446Z,998.70
2024-04-04T07:52:08.588Z,998.69
2024-04-04T07:53:09.592Z,998.78
2024-04-04T07:54:08.873Z,998.67
2024-04-04T07:55:09.886Z,998.67
2024-04-04T07:56:09.278Z,998.67
2024-04-04T07:57:13.311Z,998.68
2024-04-04T07:58:09.588Z,998.67
2024-04-04T07:59:09.599Z,998.66
2024-04-04T08:00:09.778Z,998.71
2024-04-04T08:01:11.370Z,998.66
2024-04-04T08:02:10.850Z,998.68
2024-04-04T08:03:10.739Z,998.63
2024-04-04T08:04:11.152Z,998.63
2024-04-04T08:05:11.296Z,998.59
2024-04-04T08:06:10.328Z,998.68
2024-04-04T08:07:10.630Z,998.62
2024-04-04T08:08:11.666Z,998.68
2024-04-04T08:09:10.878Z,998.67
2024-04-04T08:10:11.179Z,998.62
2024-04-04T08:11:11.149Z,998.62
2024-04-04T08:12:12.140Z,998.60
2024-04-04T08:13:12.202Z,998.59
2024-04-04T08:14:11.514Z,998.58
2024-04-04T08:15:12.524Z,998.58
2024-04-04T08:16:11.707Z,998.62
2024-04-04T08:17:11.863Z,998.58
2024-04-04T08:18:11.948Z,998.60
2024-04-04T08:19:12.122Z,998.56
2024-04-04T08:20:13.127Z,998.55
2024-04-04T08:21:13.254Z,998.57
2024-04-04T08:22:13.359Z,998.53
2024-04-04T08:23:12.556Z,998.56
2024-04-04T08:24:13.899Z,998.57
2024-04-04T08:25:15.314Z,998.52
2024-04-04T08:26:15.227Z,998.48
2024-04-04T08:27:13.270Z,998.45
2024-04-04T08:28:14.162Z,998.43
2024-04-04T08:29:14.505Z,998.45
2024-04-04T08:30:16.949Z,998.47
2024-04-04T08:31:14.638Z,998.49
2024-04-04T08:32:13.842Z,998.44
2024-04-04T08:33:14.174Z,998.43
2024-04-04T08:34:14.102Z,998.42
2024-04-04T08:35:15.136Z,998.44
2024-04-04T08:36:14.501Z,998.40
2024-04-04T08:37:15.784Z,998.43
2024-04-04T08:38:16.862Z,998.39
2024-04-04T08:39:14.674Z,998.42
2024-04-04T08:40:16.049Z,998.36
2024-04-04T08:41:15.625Z,998.37
2024-04-04T08:42:15.074Z,998.37
2024-04-04T08:43:15.497Z,998.36
2024-04-04T08:44:16.346Z,998.36
2024-04-04T08:45:17.023Z,998.36
2024-04-04T08:46:16.514Z,998.35
2024-04-04T08:47:16.346Z,998.39
2024-04-04T08:48:16.764Z,998.36
2024-04-04T08:49:16.562Z,998.33
2024-04-04T08:50:17.685Z,998.34
2024-04-04T08:51:16.367Z,998.35
2024-04-04T08:52:17.095Z,998.34
2024-04-04T08:53:16.380Z,998.34
2024-04-04T08:54:16.814Z,998.36
2024-04-04T08:55:17.235Z,998.28
2024-04-04T08:56:17.724Z,998.28
2024-04-04T08:57:19.083Z,998.29
2024-04-04T08:58:17.240Z,998.32
2024-04-04T08:59:17.228Z,998.25
2024-04-04T09:00:18.786Z,998.24
2024-04-04T09:01:27.944Z,998.25
2024-04-04T09:02:18.494Z,998.26
2024-04-04T09:03:17.877Z,998.31
2024-04-04T09:04:17.975Z,998.27
2024-04-04T09:05:17.869Z,998.36
2024-04-04T09:06:18.929Z,998.30
2024-04-04T09:07:18.130Z,998.24
2024-04-04T09:08:19.149Z,998.24
2024-04-04T09:09:18.539Z,998.19
2024-04-04T09:10:19.693Z,998.21
2024-04-04T09:11:20.202Z,998.26
2024-04-04T09:12:18.995Z,998.17
2024-04-04T09:13:19.173Z,998.21
2024-04-04T09:14:20.207Z,998.20
2024-04-04T09:15:20.196Z,998.14
2024-04-04T09:16:20.769Z,998.13
2024-04-04T09:17:21.273Z,998.17
2024-04-04T09:18:20.557Z,998.19
2024-04-04T09:19:20.543Z,998.26
2024-04-04T09:21:36.630Z,998.31
2024-04-04T09:22:36.853Z,998.29
2024-04-04T09:23:35.864Z,998.29
2024-04-04T09:24:41.935Z,998.32
2024-04-04T09:25:38.059Z,998.31
2024-04-04T09:26:36.575Z,998.28
2024-04-04T09:27:36.355Z,998.30
2024-04-04T09:28:36.569Z,998.29
2024-04-04T09:29:36.696Z,998.29
2024-04-04T09:30:36.622Z,998.30
2024-04-04T09:31:36.715Z,998.25
2024-04-04T09:32:36.941Z,998.26
2024-04-04T09:33:36.951Z,998.25
2024-04-04T09:34:37.077Z,998.26
2024-04-04T09:35:37.231Z,998.31
2024-04-04T09:36:38.770Z,998.32
2024-04-04T09:37:37.579Z,998.28
2024-04-04T09:38:37.645Z,998.23
2024-04-04T09:39:38.705Z,998.24
2024-04-04T09:40:37.898Z,998.22
2024-04-04T09:41:39.144Z,998.28
2024-04-04T09:42:38.189Z,998.21
2024-04-04T09:43:38.442Z,998.20
2024-04-04T09:44:38.533Z,998.21
2024-04-04T09:45:38.645Z,998.17
2024-04-04T09:46:38.959Z,998.23
2024-04-04T09:47:38.954Z,998.14
2024-04-04T09:48:39.090Z,998.19
2024-04-04T09:49:40.847Z,998.16
2024-04-04T09:50:39.405Z,998.20
2024-04-04T09:51:39.372Z,998.16
2024-04-04T09:52:39.765Z,998.15
2024-04-04T09:53:39.905Z,998.11
2024-04-04T09:54:39.907Z,998.15
2024-04-04T09:55:40.063Z,998.08
2024-04-04T09:56:40.951Z,998.14
2024-04-04T09:57:41.208Z,998.12
2024-04-04T09:58:40.482Z,998.11
2024-04-04T09:59:41.487Z,998.13
2024-04-04T10:00:40.713Z,998.13
2024-04-04T10:01:41.571Z,998.13
2024-04-04T10:02:40.797Z,998.16
2024-04-04T10:03:42.712Z,998.11
2024-04-04T10:04:41.860Z,998.17
2024-04-04T10:05:43.781Z,998.20
2024-04-04T10:06:41.349Z,998.19
2024-04-04T10:07:42.091Z,998.18
2024-04-04T10:08:42.702Z,998.20
2024-04-04T10:09:42.600Z,998.15
2024-04-04T10:10:42.731Z,998.15
2024-04-04T10:11:42.900Z,998.09
2024-04-04T10:12:42.903Z,998.10
2024-04-04T10:13:42.540Z,998.15
2024-04-04T10:14:42.179Z,998.12
2024-04-04T10:15:42.334Z,998.08
2024-04-04T10:16:44.088Z,998.08
2024-04-04T10:17:44.472Z,998.05
2024-04-04T10:29:33.823Z,998.15
2024-04-04T10:30:29.824Z,998.15
2024-04-04T10:31:28.899Z,998.13
2024-04-04T10:32:29.102Z,998.23
2024-04-04T10:33:29.173Z,998.16
2024-04-04T10:34:29.012Z,998.17
2024-04-04T10:35:30.194Z,998.19
2024-04-04T10:36:30.398Z,998.05
2024-04-04T10:37:29.609Z,998.04
2024-04-04T10:38:30.931Z,998.11
2024-04-04T10:39:30.221Z,998.13
2024-04-04T10:40:30.739Z,998.20
2024-04-04T10:41:30.135Z,998.20
2024-04-04T10:42:30.336Z,998.19
2024-04-04T10:43:31.168Z,998.21
2024-04-04T10:44:31.176Z,998.20
2024-04-04T10:45:31.356Z,998.19
2024-04-04T10:46:30.668Z,998.24
2024-04-04T10:47:30.797Z,998.29
2024-04-04T10:48:30.820Z,998.25
2024-04-04T10:49:31.016Z,998.32
2024-04-04T10:50:31.176Z,998.31
2024-04-04T10:51:32.444Z,998.32
2024-04-04T10:52:33.752Z,998.33
2024-04-04T10:53:32.139Z,998.31
2024-04-04T10:54:31.725Z,998.36
2024-04-04T10:55:32.748Z,998.35
2024-04-04T10:56:31.950Z,998.42
2024-04-04T10:57:32.094Z,998.36
2024-04-04T10:58:32.173Z,998.37
2024-04-04T10:59:33.854Z,998.40
2024-04-04T11:00:33.249Z,998.47
2024-04-04T11:01:32.469Z,998.42
2024-04-04T11:02:33.711Z,998.33
2024-04-04T11:03:32.913Z,998.41
2024-04-04T11:04:32.970Z,998.43
2024-04-04T11:05:33.211Z,998.48
2024-04-04T11:06:36.736Z,998.44
2024-04-04T11:07:34.289Z,998.46
2024-04-04T11:08:33.474Z,998.53
2024-04-04T11:09:34.488Z,998.48
2024-04-04T11:10:33.793Z,998.53
2024-04-04T11:11:33.761Z,998.51
2024-04-04T11:12:33.913Z,998.54
2024-04-04T11:13:34.136Z,998.55
2024-04-04T11:14:34.489Z,998.41
2024-04-04T11:15:35.862Z,998.47
2024-04-04T11:16:34.625Z,998.49
2024-04-04T11:17:34.788Z,998.44
2024-04-04T11:18:35.062Z,998.44
2024-04-04T11:19:35.159Z,998.36
2024-04-04T11:20:35.469Z,998.40
2024-04-04T11:21:35.177Z,998.40
2024-04-04T11:22:35.521Z,998.40
2024-04-04T11:23:36.445Z,998.44
2024-04-04T11:24:35.810Z,998.39
2024-04-04T11:25:36.543Z,998.44
2024-04-04T11:26:35.821Z,998.46
2024-04-04T11:27:35.950Z,998.54
2024-04-04T11:28:49.485Z,998.44
2024-04-04T11:29:37.379Z,998.46
2024-04-04T11:30:36.328Z,998.47
2024-04-04T11:31:36.543Z,998.43
2024-04-04T11:32:36.945Z,998.43
2024-04-04T11:33:37.604Z,998.48
2024-04-04T11:34:37.627Z,998.45
2024-04-04T11:35:37.754Z,998.44
2024-04-04T11:36:38.072Z,998.52
2024-04-04T11:37:37.341Z,998.52
2024-04-04T11:38:38.281Z,998.51
2024-04-04T11:39:38.140Z,998.54
2024-04-04T11:40:38.585Z,998.52
2024-04-04T11:41:37.662Z,998.53
2024-04-04T11:42:38.065Z,998.52
2024-04-04T11:43:38.785Z,998.60
2024-04-04T11:44:38.525Z,998.55
2024-04-04T11:45:38.294Z,998.58
2024-04-04T11:46:38.444Z,998.65
2024-04-04T11:47:39.128Z,998.60
2024-04-04T11:48:38.795Z,998.46
2024-04-04T11:49:38.811Z,998.46
2024-04-04T11:50:40.084Z,998.47
2024-04-04T11:51:39.067Z,998.56
2024-04-04T11:52:39.046Z,998.51
2024-04-04T11:53:39.286Z,998.56
2024-04-04T11:54:39.346Z,998.55
2024-04-04T11:55:39.511Z,998.51
2024-04-04T11:56:39.930Z,998.51
2024-04-04T11:57:41.967Z,998.53
2024-04-04T11:58:40.749Z,998.53
2024-04-04T11:59:42.440Z,998.55
2024-04-04T12:00:41.153Z,998.49
2024-04-04T12:01:41.168Z,998.46
2024-04-04T12:02:41.232Z,998.52
2024-04-04T12:03:42.207Z,998.43
2024-04-04T12:04:40.711Z,998.29
2024-04-04T12:05:40.883Z,998.37
2024-04-04T12:06:41.821Z,998.37
2024-04-04T12:07:41.954Z,998.28
2024-04-04T12:08:41.436Z,998.38
2024-04-04T12:11:57.955Z,998.51
2024-04-04T12:12:59.049Z,998.57
2024-04-04T12:13:59.183Z,998.55
2024-04-04T12:14:58.408Z,998.65
2024-04-04T12:15:58.575Z,998.67
2024-04-04T12:16:58.776Z,998.68
2024-04-04T12:17:59.203Z,998.72
2024-04-04T12:18:59.019Z,998.76
2024-04-04T12:19:59.040Z,998.68
2024-04-04T12:21:00.144Z,998.67
2024-04-04T12:22:00.276Z,998.62
2024-04-04T12:23:00.399Z,998.67
2024-04-04T12:24:07.994Z,998.59
2024-04-04T12:25:00.720Z,998.58
2024-04-04T12:26:00.676Z,998.59
2024-04-04T12:26:59.976Z,998.67
2024-04-04T12:28:00.963Z,998.72
2024-04-04T12:29:02.334Z,998.74
2024-04-04T12:30:01.252Z,998.73
2024-04-04T12:31:01.419Z,998.75
2024-04-04T12:32:00.696Z,998.87
2024-04-04T12:33:01.904Z,999.00
2024-04-04T12:34:00.738Z,998.93
2024-04-04T12:35:02.112Z,999.09
2024-04-04T12:36:02.219Z,999.05
2024-04-04T12:37:02.084Z,999.07
2024-04-04T12:38:01.399Z,999.09
2024-04-04T12:39:01.485Z,999.10
2024-04-04T12:40:02.420Z,999.11
2024-04-04T12:41:02.810Z,999.07
2024-04-04T12:42:02.775Z,999.10
2024-04-04T12:43:03.148Z,999.09
2024-04-04T12:44:02.044Z,999.11
2024-04-04T12:45:02.193Z,999.15
2024-04-04T12:46:02.490Z,999.12
2024-04-04T12:47:03.467Z,999.13
2024-04-04T12:48:02.535Z,999.17
2024-04-04T12:49:03.525Z,999.23
2024-04-04T12:50:02.696Z,999.29
2024-04-04T12:51:03.836Z,999.31
2024-04-04T12:52:03.979Z,999.33
2024-04-04T12:53:03.176Z,999.21
2024-04-04T12:54:04.952Z,999.23
2024-04-04T12:55:04.502Z,999.11
2024-04-04T12:56:03.913Z,999.25
2024-04-04T12:57:04.609Z,999.27
2024-04-04T12:58:03.814Z,999.26
2024-04-04T12:59:04.619Z,999.27
2024-04-04T13:00:04.427Z,999.27
2024-04-04T13:01:04.292Z,999.29
2024-04-04T13:02:05.073Z,999.36
2024-04-04T13:03:05.836Z,999.24
2024-04-04T13:04:04.582Z,999.20
2024-04-04T13:05:04.747Z,999.21
2024-04-04T13:06:05.767Z,999.19
2024-04-04T13:07:05.904Z,999.24
2024-04-04T13:08:06.100Z,999.23
2024-04-04T13:09:06.020Z,999.20
2024-04-04T13:10:07.771Z,999.19
2024-04-04T13:11:05.528Z,999.23
2024-04-04T13:12:05.690Z,999.24
2024-04-04T13:13:06.531Z,999.24
2024-04-04T13:14:07.358Z,999.26
2024-04-04T13:15:06.943Z,999.31
2024-04-04T13:16:06.080Z,999.26
2024-04-04T13:17:06.968Z,999.32
2024-04-04T13:18:07.361Z,999.29
2024-04-04T13:19:08.881Z,999.31
2024-04-04T13:20:07.578Z,999.30
2024-04-04T13:21:06.846Z,999.34
2024-04-04T13:22:08.819Z,999.34
2024-04-04T13:23:07.114Z,999.35
2024-04-04T13:24:08.240Z,999.32
2024-04-04T13:25:09.755Z,999.34
2024-04-04T13:26:11.441Z,999.39
2024-04-04T13:27:08.697Z,999.34
2024-04-04T13:28:09.504Z,999.40
2024-04-04T13:29:08.096Z,999.33
2024-04-04T13:30:07.980Z,999.28
2024-04-04T13:31:11.885Z,999.30
2024-04-04T13:32:08.593Z,999.34
2024-04-04T13:33:08.330Z,999.31
2024-04-04T13:34:09.518Z,999.32
2024-04-04T13:35:08.618Z,999.31
2024-04-04T13:36:08.943Z,999.38
2024-04-04T13:37:10.078Z,999.28
2024-04-04T13:38:11.418Z,999.30
2024-04-04T13:39:10.042Z,999.32
2024-04-04T13:40:11.007Z,999.27
2024-04-04T13:41:11.147Z,999.25
2024-04-04T13:42:11.772Z,999.28
2024-04-04T13:43:12.090Z,999.20
2024-04-04T13:44:11.308Z,999.25
2024-04-04T13:45:10.186Z,999.26
2024-04-04T13:46:10.153Z,999.22
2024-04-04T13:47:10.771Z,999.24
2024-04-04T13:49:25.499Z,0.00
2024-04-04T13:50:25.394Z,0.00
2024-04-04T13:51:25.314Z,0.00
2024-04-04T13:52:25.331Z,0.00
2024-04-04T13:53:25.287Z,0.00
2024-04-04T13:54:25.444Z,0.00
2024-04-04T13:55:25.416Z,0.00
2024-04-04T13:56:25.384Z,0.00
2024-04-04T13:57:25.371Z,0.00
2024-04-04T13:58:25.368Z,0.00
2024-04-04T13:59:25.483Z,0.00
2024-04-04T14:00:25.353Z,0.00
2024-04-04T14:01:25.343Z,0.00
2024-04-04T14:02:25.357Z,0.00
2024-04-04T14:03:25.356Z,0.00
2024-04-04T14:04:25.331Z,0.00
2024-04-04T14:05:25.366Z,0.00
2024-04-04T14:06:25.360Z,0.00
2024-04-04T14:07:25.580Z,0.00
2024-04-04T14:08:25.353Z,0.00
2024-04-04T14:09:25.404Z,0.00
2024-04-04T14:10:25.392Z,0.00
2024-04-04T14:11:25.408Z,0.00
2024-04-04T14:12:25.373Z,0.00
2024-04-04T14:13:25.378Z,0.00
2024-04-04T14:14:25.554Z,0.00
2024-04-04T14:15:25.424Z,0.00
2024-04-04T14:16:25.429Z,0.00
2024-04-04T14:17:25.494Z,0.00
2024-04-04T14:18:42.914Z,0.00
2024-04-04T14:19:26.431Z,0.00
2024-04-04T14:20:25.473Z,0.00
2024-04-04T14:21:25.444Z,0.00
2024-04-04T14:22:25.496Z,0.00
2024-04-04T14:23:25.460Z,0.00
2024-04-04T14:24:25.439Z,0.00
2024-04-04T14:25:25.616Z,0.00
2024-04-04T14:26:25.478Z,0.00
2024-04-04T14:27:25.528Z,0.00
2024-04-04T14:28:25.526Z,0.00
2024-04-04T14:29:25.579Z,0.00
2024-04-04T14:30:25.538Z,0.00
2024-04-04T14:31:25.567Z,0.00
2024-04-04T14:32:25.521Z,0.00
2024-04-04T14:33:25.536Z,0.00
2024-04-04T14:34:25.531Z,0.00
2024-04-04T14:35:25.563Z,0.00
2024-04-04T14:36:25.593Z,0.00
2024-04-04T14:37:25.568Z,0.00
2024-04-04T14:38:26.535Z,0.00
2024-04-04T14:39:25.633Z,0.00
2024-04-04T14:40:25.620Z,0.00
2024-04-04T14:41:25.602Z,0.00
2024-04-04T14:42:25.559Z,0.00
2024-04-04T14:43:25.613Z,0.00
2024-04-04T14:44:25.577Z,0.00
2024-04-04T14:45:25.624Z,0.00
2024-04-04T14:46:25.594Z,0.00
2024-04-04T14:47:25.604Z,0.00
2024-04-04T14:48:25.587Z,0.00
2024-04-04T14:49:25.605Z,0.00
2024-04-04T14:50:25.663Z,0.00
2024-04-04T14:51:25.629Z,0.00
2024-04-04T14:52:25.599Z,0.00
2024-04-04T14:53:25.626Z,0.00
2024-04-04T14:54:25.655Z,0.00
2024-04-04T14:55:25.667Z,0.00
2024-04-04T14:56:25.666Z,0.00
2024-04-04T14:57:25.654Z,0.00
2024-04-04T14:58:25.651Z,0.00
2024-04-04T14:59:25.691Z,0.00
2024-04-04T15:00:25.690Z,0.00
2024-04-04T15:01:25.831Z,0.00
2024-04-04T15:02:25.756Z,0.00
2024-04-04T15:03:25.718Z,0.00
2024-04-04T15:04:25.749Z,0.00
2024-04-04T15:05:25.687Z,0.00
2024-04-04T15:06:25.714Z,0.00
2024-04-04T15:07:26.026Z,0.00
2024-04-04T15:08:25.705Z,0.00
2024-04-04T15:09:25.746Z,0.00
2024-04-04T15:10:25.821Z,0.00
2024-04-04T15:11:25.724Z,0.00
2024-04-04T15:12:25.703Z,0.00
2024-04-04T15:13:25.778Z,0.00
2024-04-04T15:14:25.772Z,0.00
2024-04-04T15:15:25.736Z,0.00
2024-04-04T15:16:25.736Z,0.00
2024-04-04T15:17:25.766Z,0.00
2024-04-04T15:18:25.762Z,0.00
2024-04-04T15:19:26.724Z,0.00
2024-04-04T15:20:25.757Z,0.00
2024-04-04T15:21:25.760Z,0.00
2024-04-04T15:22:25.784Z,0.00
2024-04-04T15:23:25.803Z,0.00
2024-04-04T15:24:25.788Z,0.00
2024-04-04T15:25:26.455Z,0.00
2024-04-04T15:26:25.810Z,0.00
2024-04-04T15:27:25.808Z,0.00
2024-04-04T15:28:25.840Z,0.00
2024-04-04T15:29:25.847Z,0.00
2024-04-04T15:30:25.820Z,0.00
2024-04-04T15:31:26.403Z,0.00
2024-04-04T15:32:25.828Z,0.00
2024-04-04T15:33:25.847Z,0.00
2024-04-04T15:34:25.880Z,0.00
2024-04-04T15:35:25.860Z,0.00
2024-04-04T15:36:25.881Z,0.00
2024-04-04T15:37:26.865Z,0.00
2024-04-04T15:38:25.868Z,0.00
2024-04-04T15:39:25.880Z,0.00
2024-04-04T15:40:25.898Z,0.00
2024-04-04T15:41:25.887Z,0.00
2024-04-04T15:42:25.896Z,0.00
2024-04-04T15:43:25.930Z,0.00
2024-04-04T15:44:25.918Z,0.00
2024-04-04T15:45:25.922Z,0.00
2024-04-04T15:46:25.962Z,0.00
2024-04-04T15:47:25.929Z,0.00
2024-04-04T15:48:25.932Z,0.00
2024-04-04T15:49:27.361Z,0.00
2024-04-04T15:50:25.968Z,0.00
2024-04-04T15:51:25.973Z,0.00
2024-04-04T15:52:25.980Z,0.00
2024-04-04T15:53:25.967Z,0.00
2024-04-04T15:54:25.985Z,0.00
2024-04-04T15:55:26.035Z,0.00
2024-04-04T15:56:25.978Z,0.00
2024-04-04T15:57:25.983Z,0.00
2024-04-04T15:58:25.985Z,0.00
2024-04-04T15:59:26.015Z,0.00
2024-04-04T16:00:25.985Z,0.00
2024-04-04T16:01:25.998Z,0.00
2024-04-04T16:02:25.998Z,0.00
2024-04-04T16:03:26.014Z,0.00
2024-04-04T16:04:26.022Z,0.00
2024-04-04T16:05:26.017Z,0.00
2024-04-04T16:06:26.031Z,0.00
2024-04-04T16:07:27.242Z,0.00
2024-04-04T16:08:26.045Z,0.00
2024-04-04T16:09:27.006Z,0.00
2024-04-04T16:10:26.101Z,0.00
2024-04-04T16:11:26.064Z,0.00
2024-04-04T16:12:26.058Z,0.00
2024-04-04T16:13:26.116Z,0.00
2024-04-04T16:14:26.077Z,0.00
2024-04-04T16:15:26.091Z,0.00
2024-04-04T16:16:26.116Z,0.00
2024-04-04T16:28:35.212Z,1001.01
2024-04-04T16:29:48.894Z,1001.04
2024-04-04T16:30:35.395Z,1001.08
2024-04-04T16:31:35.571Z,1001.08
2024-04-04T16:32:35.705Z,1001.14
2024-04-04T16:33:35.832Z,1001.13
2024-04-04T16:34:35.961Z,1001.13
2024-04-04T16:35:36.099Z,1001.21
2024-04-04T16:36:36.226Z,1001.25
2024-04-04T16:37:36.360Z,1001.30
2024-04-04T16:38:36.484Z,1001.33
2024-04-04T16:39:36.614Z,1001.31
2024-04-04T16:40:36.760Z,1001.35
2024-04-04T16:41:36.878Z,1001.45
2024-04-04T16:42:37.005Z,1001.34
2024-04-04T16:43:37.112Z,1001.38
2024-04-04T16:44:37.245Z,1001.31
2024-04-04T16:45:37.388Z,1001.33
2024-04-04T16:46:37.529Z,1001.34
2024-04-04T16:47:37.633Z,1001.43
2024-04-04T16:48:37.804Z,1001.39
2024-04-04T16:49:37.872Z,1001.52
2024-04-04T16:50:37.993Z,1001.51
2024-04-04T16:51:38.131Z,1001.50
2024-04-04T16:52:38.254Z,1001.51
2024-04-04T16:53:38.402Z,1001.55
2024-04-04T16:54:39.530Z,1001.55
2024-04-04T16:55:38.639Z,1001.58
2024-04-04T16:56:38.778Z,1001.58
2024-04-04T16:57:38.904Z,1001.53
2024-04-04T16:58:39.040Z,1001.58
2024-04-04T16:59:39.179Z,1001.63
2024-04-04T17:00:39.326Z,1001.71
2024-04-04T17:01:39.496Z,1001.64
2024-04-04T17:02:39.608Z,1001.65
2024-04-04T17:03:39.744Z,1001.68
2024-04-04T17:04:39.870Z,1001.70
2024-04-04T17:05:39.995Z,1001.66
2024-04-04T17:06:40.132Z,1001.66
2024-04-04T17:07:40.300Z,1001.63
2024-04-04T17:08:40.393Z,1001.59
2024-04-04T17:09:40.538Z,1001.55
2024-04-04T17:10:40.668Z,1001.62
2024-04-04T17:11:40.787Z,1001.59
2024-04-04T17:12:40.923Z,1001.65
2024-04-04T17:13:41.037Z,1001.67
2024-04-04T17:14:41.162Z,1001.75
2024-04-04T17:15:42.281Z,1001.74
2024-04-04T17:16:41.434Z,1001.83
2024-04-04T17:17:41.598Z,1001.78
2024-04-04T17:18:41.730Z,1001.79
2024-04-04T17:19:41.856Z,1001.81
2024-04-04T17:20:41.988Z,1001.86
2024-04-04T17:21:42.116Z,1001.88